LFCR 301030Z AUTO 30004KT 240V340 CAVOK 22/12 Q1016 NOSIG

ElémentsDécodage
LFCR Station météo située sur l'aérodrome de RODEZ Marcillac
301030Z émis le 30 du mois à 10h30 UTC
AUTO Bulletin édité par un automate
30004KT vent du 300°, 04 noeuds
240V340 vent de direction variable entre 240° et 340°
CAVOK Ceiling And Visibility OK
- Visibilité de 10 Km ou plus
- Pas de nuage au-dessous de 1500m ou au-dessous de l'altitude minimale du secteur la plus élevée (si>1500m) et absence de CB
- pas de temps présent significatif
22/12 température 22°C, point de rosée 12°C
 soit une humidité relative de 53%
Q1016 la pression au niveau de la mer (QNH) est de 1016 hPa
NOSIG Pas de changement significatif prévu au cours des deux heures suivant l'heure de l'observation